sensor_id;sensor_type;location;lat;lon;timestamp;P1;durP1;ratioP1;P2;durP2;ratioP2
75342;SDS011;63936;51.006;13.764;2023-10-09T00:00:03;8;;;3;;
75342;SDS011;63936;51.006;13.764;2023-10-09T00:02:02;10;;;3;;
75342;SDS011;63936;51.006;13.764;2023-10-09T00:04:04;9;;;4;;
75342;SDS011;63936;51.006;13.764;2023-10-09T00:06:02;8;;;4;;
75342;SDS011;63936;51.006;13.764;2023-10-09T00:08:03;7;;;3;;
75342;SDS011;63936;51.006;13.764;2023-10-09T00:10:06;7;;;3;;
75342;SDS011;63936;51.006;13.764;2023-10-09T00:12:03;7;;;3;;
75342;SDS011;63936;51.006;13.764;2023-10-09T00:14:03;7;;;3;;
75342;SDS011;63936;51.006;13.764;2023-10-09T00:16:04;7;;;3;;
75342;SDS011;63936;51.006;13.764;2023-10-09T00:18:02;8;;;3;;
75342;SDS011;63936;51.006;13.764;2023-10-09T00:20:06;10;;;3;;
75342;SDS011;63936;51.006;13.764;2023-10-09T00:22:02;8;;;3;;
75342;SDS011;63936;51.006;13.764;2023-10-09T00:24:03;9;;;4;;
75342;SDS011;63936;51.006;13.764;2023-10-09T00:26:02;10;;;4;;
75342;SDS011;63936;51.006;13.764;2023-10-09T00:28:02;7;;;3;;
75342;SDS011;63936;51.006;13.764;2023-10-09T00:30:08;9;;;4;;
75342;SDS011;63936;51.006;13.764;2023-10-09T00:32:02;8;;;3;;
75342;SDS011;63936;51.006;13.764;2023-10-09T00:34:05;9;;;4;;
75342;SDS011;63936;51.006;13.764;2023-10-09T00:36:04;10;;;4;;
75342;SDS011;63936;51.006;13.764;2023-10-09T00:38:02;6;;;3;;
75342;SDS011;63936;51.006;13.764;2023-10-09T00:40:08;7;;;4;;
75342;SDS011;63936;51.006;13.764;2023-10-09T00:42:02;7;;;4;;
75342;SDS011;63936;51.006;13.764;2023-10-09T00:44:03;9;;;4;;
75342;SDS011;63936;51.006;13.764;2023-10-09T00:46:09;9;;;4;;
75342;SDS011;63936;51.006;13.764;2023-10-09T00:48:03;9;;;4;;
75342;SDS011;63936;51.006;13.764;2023-10-09T00:50:08;7;;;3;;
75342;SDS011;63936;51.006;13.764;2023-10-09T00:52:03;7;;;3;;
75342;SDS011;63936;51.006;13.764;2023-10-09T00:54:02;7;;;3;;
75342;SDS011;63936;51.006;13.764;2023-10-09T00:56:02;7;;;4;;
75342;SDS011;63936;51.006;13.764;2023-10-09T00:58:02;7;;;3;;
75342;SDS011;63936;51.006;13.764;2023-10-09T01:00:05;6;;;3;;
75342;SDS011;63936;51.006;13.764;2023-10-09T01:02:01;8;;;3;;
75342;SDS011;63936;51.006;13.764;2023-10-09T01:04:02;8;;;3;;
75342;SDS011;63936;51.006;13.764;2023-10-09T01:06:02;7;;;3;;
75342;SDS011;63936;51.006;13.764;2023-10-09T01:08:01;7;;;4;;
75342;SDS011;63936;51.006;13.764;2023-10-09T01:10:03;8;;;4;;
75342;SDS011;63936;51.006;13.764;2023-10-09T01:12:01;9;;;4;;
75342;SDS011;63936;51.006;13.764;2023-10-09T01:14:01;10;;;4;;
75342;SDS011;63936;51.006;13.764;2023-10-09T01:16:03;9;;;4;;
75342;SDS011;63936;51.006;13.764;2023-10-09T01:18:02;8;;;4;;
75342;SDS011;63936;51.006;13.764;2023-10-09T01:20:03;9;;;4;;
75342;SDS011;63936;51.006;13.764;2023-10-09T01:22:01;10;;;4;;
75342;SDS011;63936;51.006;13.764;2023-10-09T01:24:01;12;;;4;;
75342;SDS011;63936;51.006;13.764;2023-10-09T01:26:01;10;;;4;;
75342;SDS011;63936;51.006;13.764;2023-10-09T01:28:01;8;;;4;;
75342;SDS011;63936;51.006;13.764;2023-10-09T01:30:03;8;;;4;;
75342;SDS011;63936;51.006;13.764;2023-10-09T01:32:01;8;;;4;;
75342;SDS011;63936;51.006;13.764;2023-10-09T01:34:02;12;;;4;;
75342;SDS011;63936;51.006;13.764;2023-10-09T01:36:01;10;;;4;;
75342;SDS011;63936;51.006;13.764;2023-10-09T01:38:01;8;;;3;;
75342;SDS011;63936;51.006;13.764;2023-10-09T01:40:03;8;;;4;;
75342;SDS011;63936;51.006;13.764;2023-10-09T01:42:02;8;;;4;;
75342;SDS011;63936;51.006;13.764;2023-10-09T01:44:02;8;;;4;;
75342;SDS011;63936;51.006;13.764;2023-10-09T01:46:04;9;;;4;;
75342;SDS011;63936;51.006;13.764;2023-10-09T01:48:01;8;;;4;;
75342;SDS011;63936;51.006;13.764;2023-10-09T01:50:03;9;;;4;;
75342;SDS011;63936;51.006;13.764;2023-10-09T01:52:01;9;;;4;;
75342;SDS011;63936;51.006;13.764;2023-10-09T01:54:02;9;;;4;;
75342;SDS011;63936;51.006;13.764;2023-10-09T01:56:08;12;;;4;;
75342;SDS011;63936;51.006;13.764;2023-10-09T01:58:01;12;;;4;;
75342;SDS011;63936;51.006;13.764;2023-10-09T02:00:04;9;;;4;;
75342;SDS011;63936;51.006;13.764;2023-10-09T02:02:05;8;;;3;;
75342;SDS011;63936;51.006;13.764;2023-10-09T02:04:02;7;;;4;;
75342;SDS011;63936;51.006;13.764;2023-10-09T02:06:02;8;;;3;;
75342;SDS011;63936;51.006;13.764;2023-10-09T02:08:02;9;;;4;;
75342;SDS011;63936;51.006;13.764;2023-10-09T02:10:04;8;;;3;;
75342;SDS011;63936;51.006;13.764;2023-10-09T02:12:02;8;;;4;;
75342;SDS011;63936;51.006;13.764;2023-10-09T02:14:02;9;;;4;;
75342;SDS011;63936;51.006;13.764;2023-10-09T02:16:03;8;;;4;;
75342;SDS011;63936;51.006;13.764;2023-10-09T02:18:02;8;;;3;;
75342;SDS011;63936;51.006;13.764;2023-10-09T02:20:06;8;;;4;;
75342;SDS011;63936;51.006;13.764;2023-10-09T02:22:02;9;;;4;;
75342;SDS011;63936;51.006;13.764;2023-10-09T02:24:02;8;;;3;;
75342;SDS011;63936;51.006;13.764;2023-10-09T02:26:01;8;;;4;;
75342;SDS011;63936;51.006;13.764;2023-10-09T02:28:01;8;;;4;;
75342;SDS011;63936;51.006;13.764;2023-10-09T02:30:02;9;;;4;;
75342;SDS011;63936;51.006;13.764;2023-10-09T02:32:01;9;;;3;;
75342;SDS011;63936;51.006;13.764;2023-10-09T02:34:01;6;;;3;;
75342;SDS011;63936;51.006;13.764;2023-10-09T02:36:01;7;;;3;;
75342;SDS011;63936;51.006;13.764;2023-10-09T02:38:02;8;;;4;;
75342;SDS011;63936;51.006;13.764;2023-10-09T02:40:09;8;;;4;;
75342;SDS011;63936;51.006;13.764;2023-10-09T02:42:01;10;;;5;;
75342;SDS011;63936;51.006;13.764;2023-10-09T02:44:01;9;;;4;;
75342;SDS011;63936;51.006;13.764;2023-10-09T02:46:02;7;;;3;;
75342;SDS011;63936;51.006;13.764;2023-10-09T02:48:02;8;;;4;;
75342;SDS011;63936;51.006;13.764;2023-10-09T02:50:02;7;;;4;;
75342;SDS011;63936;51.006;13.764;2023-10-09T02:52:01;8;;;4;;
75342;SDS011;63936;51.006;13.764;2023-10-09T02:54:02;8;;;4;;
75342;SDS011;63936;51.006;13.764;2023-10-09T02:56:01;8;;;4;;
75342;SDS011;63936;51.006;13.764;2023-10-09T02:58:01;8;;;4;;
75342;SDS011;63936;51.006;13.764;2023-10-09T03:00:03;7;;;3;;
75342;SDS011;63936;51.006;13.764;2023-10-09T03:02:02;7;;;4;;
75342;SDS011;63936;51.006;13.764;2023-10-09T03:04:02;8;;;4;;
75342;SDS011;63936;51.006;13.764;2023-10-09T03:06:02;7;;;3;;
75342;SDS011;63936;51.006;13.764;2023-10-09T03:08:02;8;;;4;;
75342;SDS011;63936;51.006;13.764;2023-10-09T03:10:03;6;;;3;;
75342;SDS011;63936;51.006;13.764;2023-10-09T03:12:02;7;;;3;;
75342;SDS011;63936;51.006;13.764;2023-10-09T03:14:01;7;;;4;;
75342;SDS011;63936;51.006;13.764;2023-10-09T03:16:01;7;;;3;;
75342;SDS011;63936;51.006;13.764;2023-10-09T03:18:01;7;;;3;;
75342;SDS011;63936;51.006;13.764;2023-10-09T03:20:03;8;;;4;;
75342;SDS011;63936;51.006;13.764;2023-10-09T03:22:02;7;;;3;;
75342;SDS011;63936;51.006;13.764;2023-10-09T03:24:02;7;;;3;;
75342;SDS011;63936;51.006;13.764;2023-10-09T03:26:01;10;;;4;;
75342;SDS011;63936;51.006;13.764;2023-10-09T03:28:01;8;;;4;;
75342;SDS011;63936;51.006;13.764;2023-10-09T03:30:01;9;;;4;;
75342;SDS011;63936;51.006;13.764;2023-10-09T03:32:01;10;;;4;;
75342;SDS011;63936;51.006;13.764;2023-10-09T03:34:01;8;;;4;;
75342;SDS011;63936;51.006;13.764;2023-10-09T03:36:01;8;;;4;;
75342;SDS011;63936;51.006;13.764;2023-10-09T03:38:01;8;;;4;;
75342;SDS011;63936;51.006;13.764;2023-10-09T03:40:03;8;;;4;;
75342;SDS011;63936;51.006;13.764;2023-10-09T03:42:01;8;;;4;;
75342;SDS011;63936;51.006;13.764;2023-10-09T03:44:01;9;;;4;;
75342;SDS011;63936;51.006;13.764;2023-10-09T03:46:01;9;;;5;;
75342;SDS011;63936;51.006;13.764;2023-10-09T03:48:01;10;;;4;;
75342;SDS011;63936;51.006;13.764;2023-10-09T03:50:02;9;;;5;;
75342;SDS011;63936;51.006;13.764;2023-10-09T03:52:02;9;;;5;;
75342;SDS011;63936;51.006;13.764;2023-10-09T03:54:02;9;;;4;;
75342;SDS011;63936;51.006;13.764;2023-10-09T03:56:01;9;;;5;;
75342;SDS011;63936;51.006;13.764;2023-10-09T03:58:01;10;;;6;;
75342;SDS011;63936;51.006;13.764;2023-10-09T04:00:01;11;;;7;;
75342;SDS011;63936;51.006;13.764;2023-10-09T04:02:01;11;;;7;;
75342;SDS011;63936;51.006;13.764;2023-10-09T04:04:01;10;;;5;;
75342;SDS011;63936;51.006;13.764;2023-10-09T04:06:02;10;;;6;;
75342;SDS011;63936;51.006;13.764;2023-10-09T04:08:02;16;;;9;;
75342;SDS011;63936;51.006;13.764;2023-10-09T04:10:02;12;;;7;;
75342;SDS011;63936;51.006;13.764;2023-10-09T04:12:02;11;;;6;;
75342;SDS011;63936;51.006;13.764;2023-10-09T04:14:02;12;;;8;;
75342;SDS011;63936;51.006;13.764;2023-10-09T04:16:01;15;;;9;;
75342;SDS011;63936;51.006;13.764;2023-10-09T04:18:01;14;;;6;;
75342;SDS011;63936;51.006;13.764;2023-10-09T04:20:03;12;;;7;;
75342;SDS011;63936;51.006;13.764;2023-10-09T04:22:01;13;;;8;;
75342;SDS011;63936;51.006;13.764;2023-10-09T04:24:02;13;;;8;;
75342;SDS011;63936;51.006;13.764;2023-10-09T04:26:01;10;;;6;;
75342;SDS011;63936;51.006;13.764;2023-10-09T04:28:01;10;;;6;;
75342;SDS011;63936;51.006;13.764;2023-10-09T04:30:03;11;;;7;;
75342;SDS011;63936;51.006;13.764;2023-10-09T04:32:02;11;;;6;;
75342;SDS011;63936;51.006;13.764;2023-10-09T04:34:02;13;;;7;;
75342;SDS011;63936;51.006;13.764;2023-10-09T04:36:02;13;;;7;;
75342;SDS011;63936;51.006;13.764;2023-10-09T04:38:01;10;;;6;;
75342;SDS011;63936;51.006;13.764;2023-10-09T04:40:03;10;;;6;;
75342;SDS011;63936;51.006;13.764;2023-10-09T04:42:02;12;;;7;;
75342;SDS011;63936;51.006;13.764;2023-10-09T04:44:02;12;;;7;;
75342;SDS011;63936;51.006;13.764;2023-10-09T04:46:02;12;;;7;;
75342;SDS011;63936;51.006;13.764;2023-10-09T04:48:02;13;;;8;;
75342;SDS011;63936;51.006;13.764;2023-10-09T04:50:04;11;;;6;;
75342;SDS011;63936;51.006;13.764;2023-10-09T04:52:01;10;;;6;;
75342;SDS011;63936;51.006;13.764;2023-10-09T04:54:02;10;;;6;;
75342;SDS011;63936;51.006;13.764;2023-10-09T04:56:01;11;;;6;;
75342;SDS011;63936;51.006;13.764;2023-10-09T04:58:01;10;;;5;;
75342;SDS011;63936;51.006;13.764;2023-10-09T05:00:03;10;;;5;;
75342;SDS011;63936;51.006;13.764;2023-10-09T05:02:01;11;;;7;;
75342;SDS011;63936;51.006;13.764;2023-10-09T05:04:02;11;;;7;;
75342;SDS011;63936;51.006;13.764;2023-10-09T05:06:02;11;;;6;;
75342;SDS011;63936;51.006;13.764;2023-10-09T05:08:02;12;;;7;;
75342;SDS011;63936;51.006;13.764;2023-10-09T05:10:02;13;;;9;;
75342;SDS011;63936;51.006;13.764;2023-10-09T05:12:01;14;;;8;;
75342;SDS011;63936;51.006;13.764;2023-10-09T05:14:02;15;;;8;;
75342;SDS011;63936;51.006;13.764;2023-10-09T05:16:01;14;;;8;;
75342;SDS011;63936;51.006;13.764;2023-10-09T05:18:02;13;;;7;;
75342;SDS011;63936;51.006;13.764;2023-10-09T05:20:02;13;;;8;;
75342;SDS011;63936;51.006;13.764;2023-10-09T05:22:02;13;;;7;;
75342;SDS011;63936;51.006;13.764;2023-10-09T05:24:02;13;;;8;;
75342;SDS011;63936;51.006;13.764;2023-10-09T05:26:03;14;;;9;;
75342;SDS011;63936;51.006;13.764;2023-10-09T05:28:01;15;;;9;;
75342;SDS011;63936;51.006;13.764;2023-10-09T05:30:04;13;;;8;;
75342;SDS011;63936;51.006;13.764;2023-10-09T05:32:02;12;;;7;;
75342;SDS011;63936;51.006;13.764;2023-10-09T05:34:02;12;;;7;;
75342;SDS011;63936;51.006;13.764;2023-10-09T05:36:02;12;;;7;;
75342;SDS011;63936;51.006;13.764;2023-10-09T05:38:02;11;;;6;;
75342;SDS011;63936;51.006;13.764;2023-10-09T05:40:04;12;;;7;;
75342;SDS011;63936;51.006;13.764;2023-10-09T05:42:02;12;;;8;;
75342;SDS011;63936;51.006;13.764;2023-10-09T05:44:02;12;;;8;;
75342;SDS011;63936;51.006;13.764;2023-10-09T05:46:02;11;;;6;;
75342;SDS011;63936;51.006;13.764;2023-10-09T05:48:02;13;;;7;;
75342;SDS011;63936;51.006;13.764;2023-10-09T05:50:04;13;;;8;;
75342;SDS011;63936;51.006;13.764;2023-10-09T05:52:02;15;;;8;;
75342;SDS011;63936;51.006;13.764;2023-10-09T05:54:02;12;;;6;;
75342;SDS011;63936;51.006;13.764;2023-10-09T05:56:02;14;;;7;;
75342;SDS011;63936;51.006;13.764;2023-10-09T05:58:01;11;;;6;;
75342;SDS011;63936;51.006;13.764;2023-10-09T06:00:04;11;;;7;;
75342;SDS011;63936;51.006;13.764;2023-10-09T06:02:01;14;;;8;;
75342;SDS011;63936;51.006;13.764;2023-10-09T06:04:02;14;;;8;;
75342;SDS011;63936;51.006;13.764;2023-10-09T06:06:02;13;;;8;;
75342;SDS011;63936;51.006;13.764;2023-10-09T06:08:02;13;;;8;;
75342;SDS011;63936;51.006;13.764;2023-10-09T06:10:03;15;;;9;;
75342;SDS011;63936;51.006;13.764;2023-10-09T06:12:02;16;;;10;;
75342;SDS011;63936;51.006;13.764;2023-10-09T06:14:02;14;;;8;;
75342;SDS011;63936;51.006;13.764;2023-10-09T06:16:02;14;;;8;;
75342;SDS011;63936;51.006;13.764;2023-10-09T06:18:02;17;;;10;;
75342;SDS011;63936;51.006;13.764;2023-10-09T06:20:03;15;;;10;;
75342;SDS011;63936;51.006;13.764;2023-10-09T06:22:01;18;;;11;;
75342;SDS011;63936;51.006;13.764;2023-10-09T06:24:01;18;;;11;;
75342;SDS011;63936;51.006;13.764;2023-10-09T06:26:02;18;;;10;;
75342;SDS011;63936;51.006;13.764;2023-10-09T06:28:02;16;;;9;;
75342;SDS011;63936;51.006;13.764;2023-10-09T06:30:02;18;;;10;;
75342;SDS011;63936;51.006;13.764;2023-10-09T06:32:02;21;;;11;;
75342;SDS011;63936;51.006;13.764;2023-10-09T06:34:02;19;;;9;;
75342;SDS011;63936;51.006;13.764;2023-10-09T06:36:01;18;;;11;;
75342;SDS011;63936;51.006;13.764;2023-10-09T06:38:02;19;;;13;;
75342;SDS011;63936;51.006;13.764;2023-10-09T06:40:03;19;;;12;;
75342;SDS011;63936;51.006;13.764;2023-10-09T06:42:01;19;;;12;;
75342;SDS011;63936;51.006;13.764;2023-10-09T06:44:01;19;;;12;;
75342;SDS011;63936;51.006;13.764;2023-10-09T06:46:01;20;;;11;;
75342;SDS011;63936;51.006;13.764;2023-10-09T06:48:01;18;;;11;;
75342;SDS011;63936;51.006;13.764;2023-10-09T06:50:05;17;;;11;;
75342;SDS011;63936;51.006;13.764;2023-10-09T06:52:02;20;;;11;;
75342;SDS011;63936;51.006;13.764;2023-10-09T06:54:02;21;;;12;;
75342;SDS011;63936;51.006;13.764;2023-10-09T06:56:02;18;;;12;;
75342;SDS011;63936;51.006;13.764;2023-10-09T06:58:01;17;;;11;;
75342;SDS011;63936;51.006;13.764;2023-10-09T07:00:04;20;;;13;;
75342;SDS011;63936;51.006;13.764;2023-10-09T07:02:01;18;;;12;;
75342;SDS011;63936;51.006;13.764;2023-10-09T07:04:01;18;;;12;;
75342;SDS011;63936;51.006;13.764;2023-10-09T07:06:02;20;;;13;;
75342;SDS011;63936;51.006;13.764;2023-10-09T07:08:01;20;;;13;;
75342;SDS011;63936;51.006;13.764;2023-10-09T07:10:02;20;;;11;;
75342;SDS011;63936;51.006;13.764;2023-10-09T07:12:01;20;;;11;;
75342;SDS011;63936;51.006;13.764;2023-10-09T07:14:01;19;;;11;;
75342;SDS011;63936;51.006;13.764;2023-10-09T07:16:01;18;;;12;;
75342;SDS011;63936;51.006;13.764;2023-10-09T07:18:01;23;;;12;;
75342;SDS011;63936;51.006;13.764;2023-10-09T07:20:02;19;;;11;;
75342;SDS011;63936;51.006;13.764;2023-10-09T07:22:01;19;;;12;;
75342;SDS011;63936;51.006;13.764;2023-10-09T07:24:01;22;;;13;;
75342;SDS011;63936;51.006;13.764;2023-10-09T07:26:02;23;;;14;;
75342;SDS011;63936;51.006;13.764;2023-10-09T07:28:02;26;;;14;;
75342;SDS011;63936;51.006;13.764;2023-10-09T07:30:06;25;;;14;;
75342;SDS011;63936;51.006;13.764;2023-10-09T07:32:02;20;;;12;;
75342;SDS011;63936;51.006;13.764;2023-10-09T07:34:02;22;;;13;;
75342;SDS011;63936;51.006;13.764;2023-10-09T07:36:01;22;;;14;;
75342;SDS011;63936;51.006;13.764;2023-10-09T07:38:01;22;;;14;;
75342;SDS011;63936;51.006;13.764;2023-10-09T07:40:03;26;;;15;;
75342;SDS011;63936;51.006;13.764;2023-10-09T07:42:04;29;;;15;;
75342;SDS011;63936;51.006;13.764;2023-10-09T07:44:02;23;;;13;;
75342;SDS011;63936;51.006;13.764;2023-10-09T07:46:02;23;;;14;;
75342;SDS011;63936;51.006;13.764;2023-10-09T07:48:01;24;;;14;;
75342;SDS011;63936;51.006;13.764;2023-10-09T07:50:02;24;;;15;;
75342;SDS011;63936;51.006;13.764;2023-10-09T07:52:01;20;;;14;;
75342;SDS011;63936;51.006;13.764;2023-10-09T07:54:01;22;;;14;;
75342;SDS011;63936;51.006;13.764;2023-10-09T07:56:01;22;;;15;;
75342;SDS011;63936;51.006;13.764;2023-10-09T07:58:01;22;;;15;;
75342;SDS011;63936;51.006;13.764;2023-10-09T08:00:02;27;;;15;;
75342;SDS011;63936;51.006;13.764;2023-10-09T08:02:02;27;;;16;;
75342;SDS011;63936;51.006;13.764;2023-10-09T08:04:02;28;;;14;;
75342;SDS011;63936;51.006;13.764;2023-10-09T08:06:01;29;;;15;;
75342;SDS011;63936;51.006;13.764;2023-10-09T08:08:01;27;;;15;;
75342;SDS011;63936;51.006;13.764;2023-10-09T08:10:02;28;;;15;;
75342;SDS011;63936;51.006;13.764;2023-10-09T08:12:01;33;;;16;;
75342;SDS011;63936;51.006;13.764;2023-10-09T08:14:01;31;;;16;;
75342;SDS011;63936;51.006;13.764;2023-10-09T08:16:01;27;;;15;;
75342;SDS011;63936;51.006;13.764;2023-10-09T08:18:02;28;;;16;;
75342;SDS011;63936;51.006;13.764;2023-10-09T08:20:03;30;;;17;;
75342;SDS011;63936;51.006;13.764;2023-10-09T08:22:01;30;;;17;;
75342;SDS011;63936;51.006;13.764;2023-10-09T08:24:01;32;;;17;;
75342;SDS011;63936;51.006;13.764;2023-10-09T08:26:02;32;;;17;;
75342;SDS011;63936;51.006;13.764;2023-10-09T08:28:02;30;;;18;;
75342;SDS011;63936;51.006;13.764;2023-10-09T08:30:03;33;;;19;;
75342;SDS011;63936;51.006;13.764;2023-10-09T08:32:01;28;;;15;;
75342;SDS011;63936;51.006;13.764;2023-10-09T08:34:01;30;;;17;;
75342;SDS011;63936;51.006;13.764;2023-10-09T08:36:02;36;;;19;;
75342;SDS011;63936;51.006;13.764;2023-10-09T08:38:01;37;;;19;;
75342;SDS011;63936;51.006;13.764;2023-10-09T08:40:02;40;;;21;;
75342;SDS011;63936;51.006;13.764;2023-10-09T08:42:02;42;;;21;;
75342;SDS011;63936;51.006;13.764;2023-10-09T08:44:02;42;;;20;;
75342;SDS011;63936;51.006;13.764;2023-10-09T08:46:01;42;;;20;;
75342;SDS011;63936;51.006;13.764;2023-10-09T08:48:01;34;;;18;;
75342;SDS011;63936;51.006;13.764;2023-10-09T08:50:02;34;;;18;;
75342;SDS011;63936;51.006;13.764;2023-10-09T08:52:02;38;;;20;;
75342;SDS011;63936;51.006;13.764;2023-10-09T08:54:02;39;;;20;;
75342;SDS011;63936;51.006;13.764;2023-10-09T08:56:01;32;;;17;;
75342;SDS011;63936;51.006;13.764;2023-10-09T08:58:01;33;;;18;;
75342;SDS011;63936;51.006;13.764;2023-10-09T09:00:02;38;;;19;;
75342;SDS011;63936;51.006;13.764;2023-10-09T09:02:01;36;;;19;;
75342;SDS011;63936;51.006;13.764;2023-10-09T09:04:01;35;;;18;;
75342;SDS011;63936;51.006;13.764;2023-10-09T09:06:01;33;;;18;;
75342;SDS011;63936;51.006;13.764;2023-10-09T09:08:01;28;;;15;;
75342;SDS011;63936;51.006;13.764;2023-10-09T09:10:02;29;;;16;;
75342;SDS011;63936;51.006;13.764;2023-10-09T09:12:01;29;;;16;;
75342;SDS011;63936;51.006;13.764;2023-10-09T09:14:01;30;;;16;;
75342;SDS011;63936;51.006;13.764;2023-10-09T09:16:01;29;;;15;;
75342;SDS011;63936;51.006;13.764;2023-10-09T09:18:04;31;;;16;;
75342;SDS011;63936;51.006;13.764;2023-10-09T09:20:14;27;;;15;;
75342;SDS011;63936;51.006;13.764;2023-10-09T09:22:01;33;;;16;;
75342;SDS011;63936;51.006;13.764;2023-10-09T09:24:01;29;;;16;;
75342;SDS011;63936;51.006;13.764;2023-10-09T09:26:01;28;;;16;;
75342;SDS011;63936;51.006;13.764;2023-10-09T09:28:01;32;;;17;;
75342;SDS011;63936;51.006;13.764;2023-10-09T09:30:02;29;;;16;;
75342;SDS011;63936;51.006;13.764;2023-10-09T09:32:01;28;;;14;;
75342;SDS011;63936;51.006;13.764;2023-10-09T09:34:01;28;;;13;;
75342;SDS011;63936;51.006;13.764;2023-10-09T09:36:02;27;;;15;;
75342;SDS011;63936;51.006;13.764;2023-10-09T09:38:02;28;;;15;;
75342;SDS011;63936;51.006;13.764;2023-10-09T09:40:03;28;;;14;;
75342;SDS011;63936;51.006;13.764;2023-10-09T09:42:02;27;;;14;;
75342;SDS011;63936;51.006;13.764;2023-10-09T09:44:02;26;;;14;;
75342;SDS011;63936;51.006;13.764;2023-10-09T09:46:01;27;;;14;;
75342;SDS011;63936;51.006;13.764;2023-10-09T09:48:02;24;;;14;;
75342;SDS011;63936;51.006;13.764;2023-10-09T09:50:03;23;;;14;;
75342;SDS011;63936;51.006;13.764;2023-10-09T09:52:01;22;;;13;;
75342;SDS011;63936;51.006;13.764;2023-10-09T09:54:01;23;;;13;;
75342;SDS011;63936;51.006;13.764;2023-10-09T09:56:01;22;;;12;;
75342;SDS011;63936;51.006;13.764;2023-10-09T09:58:02;22;;;13;;
75342;SDS011;63936;51.006;13.764;2023-10-09T10:00:02;25;;;14;;
75342;SDS011;63936;51.006;13.764;2023-10-09T10:02:02;25;;;14;;
75342;SDS011;63936;51.006;13.764;2023-10-09T10:04:03;27;;;13;;
75342;SDS011;63936;51.006;13.764;2023-10-09T10:06:02;22;;;13;;
75342;SDS011;63936;51.006;13.764;2023-10-09T10:08:00;22;;;13;;
75342;SDS011;63936;51.006;13.764;2023-10-09T10:10:02;20;;;13;;
75342;SDS011;63936;51.006;13.764;2023-10-09T10:12:01;23;;;13;;
75342;SDS011;63936;51.006;13.764;2023-10-09T10:14:01;21;;;13;;
75342;SDS011;63936;51.006;13.764;2023-10-09T10:16:05;21;;;13;;
75342;SDS011;63936;51.006;13.764;2023-10-09T10:18:06;18;;;11;;
75342;SDS011;63936;51.006;13.764;2023-10-09T10:20:03;18;;;11;;
75342;SDS011;63936;51.006;13.764;2023-10-09T10:22:04;18;;;12;;
75342;SDS011;63936;51.006;13.764;2023-10-09T10:24:01;20;;;12;;
75342;SDS011;63936;51.006;13.764;2023-10-09T10:26:15;17;;;11;;
75342;SDS011;63936;51.006;13.764;2023-10-09T10:28:17;18;;;11;;
75342;SDS011;63936;51.006;13.764;2023-10-09T10:30:33;18;;;10;;
75342;SDS011;63936;51.006;13.764;2023-10-09T10:32:01;19;;;10;;
75342;SDS011;63936;51.006;13.764;2023-10-09T10:34:04;17;;;10;;
75342;SDS011;63936;51.006;13.764;2023-10-09T10:36:02;17;;;10;;
75342;SDS011;63936;51.006;13.764;2023-10-09T10:38:02;18;;;10;;
75342;SDS011;63936;51.006;13.764;2023-10-09T10:40:03;18;;;11;;
75342;SDS011;63936;51.006;13.764;2023-10-09T10:42:01;19;;;10;;
75342;SDS011;63936;51.006;13.764;2023-10-09T10:44:02;19;;;10;;
75342;SDS011;63936;51.006;13.764;2023-10-09T10:46:02;23;;;11;;
75342;SDS011;63936;51.006;13.764;2023-10-09T10:48:01;21;;;11;;
75342;SDS011;63936;51.006;13.764;2023-10-09T10:50:02;18;;;10;;
75342;SDS011;63936;51.006;13.764;2023-10-09T10:52:01;17;;;9;;
75342;SDS011;63936;51.006;13.764;2023-10-09T10:54:01;19;;;11;;
75342;SDS011;63936;51.006;13.764;2023-10-09T10:56:01;21;;;11;;
75342;SDS011;63936;51.006;13.764;2023-10-09T10:58:01;21;;;11;;
75342;SDS011;63936;51.006;13.764;2023-10-09T11:00:09;22;;;11;;
75342;SDS011;63936;51.006;13.764;2023-10-09T11:02:02;22;;;11;;
75342;SDS011;63936;51.006;13.764;2023-10-09T11:04:10;21;;;11;;
75342;SDS011;63936;51.006;13.764;2023-10-09T11:06:01;22;;;12;;
75342;SDS011;63936;51.006;13.764;2023-10-09T11:08:05;21;;;12;;
75342;SDS011;63936;51.006;13.764;2023-10-09T11:10:02;21;;;12;;
75342;SDS011;63936;51.006;13.764;2023-10-09T11:12:04;21;;;12;;
75342;SDS011;63936;51.006;13.764;2023-10-09T11:14:07;20;;;12;;
75342;SDS011;63936;51.006;13.764;2023-10-09T11:16:03;22;;;12;;
75342;SDS011;63936;51.006;13.764;2023-10-09T11:18:02;21;;;12;;
75342;SDS011;63936;51.006;13.764;2023-10-09T11:20:03;20;;;12;;
75342;SDS011;63936;51.006;13.764;2023-10-09T11:22:01;23;;;14;;
75342;SDS011;63936;51.006;13.764;2023-10-09T11:24:01;22;;;14;;
75342;SDS011;63936;51.006;13.764;2023-10-09T11:26:01;23;;;14;;
75342;SDS011;63936;51.006;13.764;2023-10-09T11:28:01;22;;;13;;
75342;SDS011;63936;51.006;13.764;2023-10-09T11:30:01;21;;;13;;
75342;SDS011;63936;51.006;13.764;2023-10-09T11:32:01;21;;;13;;
75342;SDS011;63936;51.006;13.764;2023-10-09T11:34:01;20;;;13;;
75342;SDS011;63936;51.006;13.764;2023-10-09T11:36:01;21;;;13;;
75342;SDS011;63936;51.006;13.764;2023-10-09T11:38:01;20;;;12;;
75342;SDS011;63936;51.006;13.764;2023-10-09T11:40:02;24;;;12;;
75342;SDS011;63936;51.006;13.764;2023-10-09T11:42:02;23;;;14;;
75342;SDS011;63936;51.006;13.764;2023-10-09T11:44:01;22;;;14;;
75342;SDS011;63936;51.006;13.764;2023-10-09T11:46:07;24;;;13;;
75342;SDS011;63936;51.006;13.764;2023-10-09T11:48:15;26;;;14;;
75342;SDS011;63936;51.006;13.764;2023-10-09T11:50:01;23;;;14;;
75342;SDS011;63936;51.006;13.764;2023-10-09T11:52:08;23;;;14;;
75342;SDS011;63936;51.006;13.764;2023-10-09T11:54:01;27;;;14;;
75342;SDS011;63936;51.006;13.764;2023-10-09T11:56:01;25;;;14;;
75342;SDS011;63936;51.006;13.764;2023-10-09T11:58:02;24;;;15;;
75342;SDS011;63936;51.006;13.764;2023-10-09T12:00:03;25;;;15;;
75342;SDS011;63936;51.006;13.764;2023-10-09T12:02:01;24;;;14;;
75342;SDS011;63936;51.006;13.764;2023-10-09T12:04:01;24;;;14;;
75342;SDS011;63936;51.006;13.764;2023-10-09T12:06:02;25;;;15;;
75342;SDS011;63936;51.006;13.764;2023-10-09T12:08:01;27;;;16;;
75342;SDS011;63936;51.006;13.764;2023-10-09T12:10:02;24;;;15;;
75342;SDS011;63936;51.006;13.764;2023-10-09T12:12:02;24;;;15;;
75342;SDS011;63936;51.006;13.764;2023-10-09T12:14:01;29;;;17;;
75342;SDS011;63936;51.006;13.764;2023-10-09T12:16:01;28;;;17;;
75342;SDS011;63936;51.006;13.764;2023-10-09T12:18:01;26;;;16;;
75342;SDS011;63936;51.006;13.764;2023-10-09T12:20:02;28;;;16;;
75342;SDS011;63936;51.006;13.764;2023-10-09T12:22:01;29;;;17;;
75342;SDS011;63936;51.006;13.764;2023-10-09T12:24:01;30;;;18;;
75342;SDS011;63936;51.006;13.764;2023-10-09T12:26:01;31;;;18;;
75342;SDS011;63936;51.006;13.764;2023-10-09T12:28:02;33;;;18;;
75342;SDS011;63936;51.006;13.764;2023-10-09T12:30:02;32;;;17;;
75342;SDS011;63936;51.006;13.764;2023-10-09T12:32:01;33;;;18;;
75342;SDS011;63936;51.006;13.764;2023-10-09T12:34:01;34;;;18;;
75342;SDS011;63936;51.006;13.764;2023-10-09T12:36:02;32;;;18;;
75342;SDS011;63936;51.006;13.764;2023-10-09T12:38:02;30;;;18;;
75342;SDS011;63936;51.006;13.764;2023-10-09T12:40:02;31;;;18;;
75342;SDS011;63936;51.006;13.764;2023-10-09T12:42:01;29;;;19;;
75342;SDS011;63936;51.006;13.764;2023-10-09T12:44:01;30;;;19;;
75342;SDS011;63936;51.006;13.764;2023-10-09T12:46:03;33;;;20;;